SBI8342 UWKD-UWUU
Flight info
| Callsign | SBI8342 |
|---|---|
| Flight time | 0h 43m |
| Altitude | 35000 |
| Route | INTAR1G INTAR T788 NAMUD L994 DILUP DILUP3K |
| Aircraft | A320/M-SDFGIJ1RWY/LB1 |
Departure
| Time | 2026-04-26 12:22 |
|---|---|
| Airport | Kazan International Airport (UWKD) |
Arrival
| Time | 2026-04-26 13:05 |
|---|---|
| Airport | Ufa International Airport (UWUU) |
| Time | Latitude | Longitude | Altitude | Speed | Heading |
|---|---|---|---|---|---|
| 2026-04-26 11:32 | 55.60631 | 49.29791 | 416 ft | 0 kts | 34° |
| 2026-04-26 12:08 | 55.60633 | 49.29794 | 416 ft | 3 kts | 34° |
| 2026-04-26 12:09 | 55.60669 | 49.29820 | 413 ft | 7 kts | 0° |
| 2026-04-26 12:09 | 55.60713 | 49.29737 | 411 ft | 10 kts | 304° |
| 2026-04-26 12:09 | 55.60750 | 49.29641 | 409 ft | 9 kts | 304° |
| 2026-04-26 12:09 | 55.60783 | 49.29557 | 413 ft | 8 kts | 304° |
| 2026-04-26 12:10 | 55.60815 | 49.29472 | 416 ft | 8 kts | 300° |
| 2026-04-26 12:10 | 55.60791 | 49.29398 | 413 ft | 9 kts | 214° |
| 2026-04-26 12:10 | 55.60727 | 49.29322 | 416 ft | 13 kts | 214° |
| 2026-04-26 12:10 | 55.60647 | 49.29224 | 416 ft | 15 kts | 214° |
| 2026-04-26 12:11 | 55.60578 | 49.29079 | 414 ft | 17 kts | 255° |
| 2026-04-26 12:11 | 55.60583 | 49.28863 | 412 ft | 18 kts | 274° |
| 2026-04-26 12:11 | 55.60593 | 49.28659 | 416 ft | 15 kts | 278° |
| 2026-04-26 12:11 | 55.60635 | 49.28506 | 409 ft | 13 kts | 304° |
| 2026-04-26 12:12 | 55.60684 | 49.28379 | 411 ft | 12 kts | 304° |
| 2026-04-26 12:12 | 55.60732 | 49.28253 | 410 ft | 15 kts | 304° |
| 2026-04-26 12:12 | 55.60802 | 49.28074 | 414 ft | 19 kts | 304° |
| 2026-04-26 12:12 | 55.60851 | 49.27949 | 414 ft | 19 kts | 304° |
| 2026-04-26 12:13 | 55.60949 | 49.27694 | 416 ft | 19 kts | 304° |
| 2026-04-26 12:13 | 55.61020 | 49.27511 | 413 ft | 18 kts | 304° |
| 2026-04-26 12:13 | 55.61089 | 49.27334 | 414 ft | 17 kts | 304° |
| 2026-04-26 12:13 | 55.61152 | 49.27172 | 409 ft | 15 kts | 304° |
| 2026-04-26 12:14 | 55.61208 | 49.27027 | 414 ft | 14 kts | 304° |
| 2026-04-26 12:14 | 55.61258 | 49.26898 | 413 ft | 12 kts | 304° |
| 2026-04-26 12:14 | 55.61307 | 49.26772 | 414 ft | 15 kts | 304° |
| 2026-04-26 12:14 | 55.61363 | 49.26628 | 413 ft | 13 kts | 304° |
| 2026-04-26 12:15 | 55.61412 | 49.26500 | 412 ft | 12 kts | 304° |
| 2026-04-26 12:15 | 55.61457 | 49.26385 | 412 ft | 11 kts | 304° |
| 2026-04-26 12:15 | 55.61514 | 49.26238 | 413 ft | 15 kts | 304° |
| 2026-04-26 12:15 | 55.61571 | 49.26090 | 410 ft | 14 kts | 304° |
| 2026-04-26 12:16 | 55.61622 | 49.25960 | 413 ft | 12 kts | 304° |
| 2026-04-26 12:16 | 55.61667 | 49.25843 | 415 ft | 11 kts | 304° |
| 2026-04-26 12:16 | 55.61707 | 49.25740 | 412 ft | 10 kts | 304° |
| 2026-04-26 12:16 | 55.61752 | 49.25625 | 414 ft | 17 kts | 304° |
| 2026-04-26 12:17 | 55.61821 | 49.25446 | 413 ft | 17 kts | 304° |
| 2026-04-26 12:17 | 55.61854 | 49.25334 | 415 ft | 8 kts | 276° |
| 2026-04-26 12:17 | 55.61821 | 49.25252 | 415 ft | 9 kts | 213° |
| 2026-04-26 12:17 | 55.61803 | 49.25231 | 412 ft | 0 kts | 214° |
| 2026-04-26 12:18 | 55.61775 | 49.25197 | 409 ft | 9 kts | 214° |
| 2026-04-26 12:18 | 55.61716 | 49.25124 | 409 ft | 7 kts | 216° |
| 2026-04-26 12:18 | 55.61688 | 49.25132 | 410 ft | 2 kts | 126° |
| 2026-04-26 12:19 | 55.61687 | 49.25136 | 410 ft | 0 kts | 124° |
| 2026-04-26 12:21 | 55.61682 | 49.25148 | 410 ft | 12 kts | 124° |
| 2026-04-26 12:21 | 55.61476 | 49.25679 | 410 ft | 88 kts | 124° |
| 2026-04-26 12:21 | 55.61009 | 49.26882 | 411 ft | 146 kts | 124° |
| 2026-04-26 12:21 | 55.60377 | 49.28484 | 835 ft | 158 kts | 127° |
| 2026-04-26 12:22 | 55.59760 | 49.30066 | 1619 ft | 156 kts | 130° |
| 2026-04-26 12:22 | 55.59150 | 49.31647 | 2387 ft | 155 kts | 130° |
| 2026-04-26 12:22 | 55.58540 | 49.33231 | 3030 ft | 157 kts | 133° |
| 2026-04-26 12:22 | 55.57912 | 49.34814 | 3647 ft | 161 kts | 133° |
| 2026-04-26 12:23 | 55.57216 | 49.36550 | 3931 ft | 184 kts | 133° |
| 2026-04-26 12:23 | 55.56445 | 49.38510 | 4307 ft | 204 kts | 131° |
| 2026-04-26 12:23 | 55.55591 | 49.40697 | 4654 ft | 228 kts | 131° |
| 2026-04-26 12:23 | 55.54547 | 49.42960 | 5119 ft | 248 kts | 136° |
| 2026-04-26 12:24 | 55.53341 | 49.45203 | 5793 ft | 260 kts | 140° |
| 2026-04-26 12:24 | 55.52021 | 49.47438 | 6636 ft | 265 kts | 141° |
| 2026-04-26 12:24 | 55.50663 | 49.49686 | 7503 ft | 270 kts | 141° |
| 2026-04-26 12:25 | 55.47869 | 49.54341 | 9199 ft | 282 kts | 141° |
| 2026-04-26 12:25 | 55.46436 | 49.56761 | 9989 ft | 290 kts | 141° |
| 2026-04-26 12:25 | 55.44924 | 49.59323 | 10301 ft | 313 kts | 140° |
| 2026-04-26 12:25 | 55.43297 | 49.62085 | 10578 ft | 337 kts | 140° |
| 2026-04-26 12:26 | 55.41582 | 49.65017 | 11142 ft | 348 kts | 140° |
| 2026-04-26 12:26 | 55.39829 | 49.68031 | 11851 ft | 355 kts | 139° |
| 2026-04-26 12:26 | 55.38051 | 49.71093 | 12560 ft | 361 kts | 139° |
| 2026-04-26 12:26 | 55.36236 | 49.74207 | 13277 ft | 367 kts | 140° |
| 2026-04-26 12:27 | 55.34394 | 49.77352 | 13930 ft | 372 kts | 140° |
| 2026-04-26 12:27 | 55.32526 | 49.80543 | 14576 ft | 377 kts | 140° |
| 2026-04-26 12:27 | 55.30697 | 49.83879 | 15210 ft | 384 kts | 133° |
| 2026-04-26 12:27 | 55.29182 | 49.87793 | 15844 ft | 392 kts | 122° |
| 2026-04-26 12:28 | 55.28028 | 49.92172 | 16483 ft | 398 kts | 116° |
| 2026-04-26 12:28 | 55.26938 | 49.96593 | 17120 ft | 402 kts | 116° |
| 2026-04-26 12:28 | 55.25818 | 50.01121 | 17766 ft | 407 kts | 116° |
| 2026-04-26 12:28 | 55.24682 | 50.05686 | 18364 ft | 411 kts | 117° |
| 2026-04-26 12:29 | 55.23524 | 50.10298 | 18911 ft | 415 kts | 117° |
| 2026-04-26 12:29 | 55.22354 | 50.14940 | 19458 ft | 419 kts | 117° |
| 2026-04-26 12:29 | 55.19979 | 50.24375 | 20487 ft | 428 kts | 117° |
| 2026-04-26 12:30 | 55.18775 | 50.29158 | 21142 ft | 429 kts | 117° |
| 2026-04-26 12:30 | 55.17559 | 50.33981 | 21559 ft | 437 kts | 117° |
| 2026-04-26 12:30 | 55.16320 | 50.38861 | 22035 ft | 441 kts | 117° |
| 2026-04-26 12:31 | 55.13796 | 50.48758 | 23017 ft | 449 kts | 117° |
| 2026-04-26 12:31 | 55.12519 | 50.53765 | 23480 ft | 453 kts | 117° |
| 2026-04-26 12:31 | 55.11232 | 50.58809 | 23871 ft | 456 kts | 117° |
| 2026-04-26 12:31 | 55.09932 | 50.63886 | 24258 ft | 459 kts | 117° |
| 2026-04-26 12:32 | 55.08638 | 50.68921 | 24622 ft | 462 kts | 117° |
| 2026-04-26 12:32 | 55.07317 | 50.74039 | 24983 ft | 465 kts | 117° |
| 2026-04-26 12:32 | 55.04689 | 50.84402 | 25778 ft | 470 kts | 112° |
| 2026-04-26 12:33 | 55.03610 | 50.89815 | 26155 ft | 473 kts | 111° |
| 2026-04-26 12:33 | 55.02534 | 50.95257 | 26518 ft | 476 kts | 111° |
| 2026-04-26 12:33 | 55.01447 | 51.00719 | 26874 ft | 478 kts | 111° |
| 2026-04-26 12:33 | 55.00352 | 51.06198 | 27226 ft | 481 kts | 111° |
| 2026-04-26 12:34 | 54.99246 | 51.11715 | 27566 ft | 483 kts | 111° |
| 2026-04-26 12:34 | 54.98135 | 51.17254 | 27886 ft | 486 kts | 111° |
| 2026-04-26 12:34 | 54.97016 | 51.22826 | 28203 ft | 488 kts | 111° |
| 2026-04-26 12:34 | 54.95889 | 51.28410 | 28503 ft | 491 kts | 111° |
| 2026-04-26 12:35 | 54.94748 | 51.34026 | 28817 ft | 493 kts | 111° |
| 2026-04-26 12:35 | 54.93598 | 51.39658 | 29103 ft | 495 kts | 111° |
| 2026-04-26 12:35 | 54.92440 | 51.45315 | 29389 ft | 497 kts | 111° |
| 2026-04-26 12:35 | 54.91282 | 51.50989 | 29673 ft | 499 kts | 111° |
| 2026-04-26 12:36 | 54.90116 | 51.56686 | 29934 ft | 501 kts | 111° |
| 2026-04-26 12:36 | 54.88942 | 51.62414 | 30149 ft | 503 kts | 111° |
| 2026-04-26 12:36 | 54.87781 | 51.68060 | 30431 ft | 503 kts | 111° |
| 2026-04-26 12:36 | 54.86604 | 51.73762 | 30744 ft | 502 kts | 111° |
| 2026-04-26 12:37 | 54.85422 | 51.79467 | 31041 ft | 501 kts | 111° |
| 2026-04-26 12:37 | 54.84255 | 51.85064 | 31328 ft | 501 kts | 111° |
| 2026-04-26 12:37 | 54.83065 | 51.90749 | 31643 ft | 500 kts | 111° |
| 2026-04-26 12:37 | 54.81877 | 51.96412 | 31968 ft | 499 kts | 111° |
| 2026-04-26 12:38 | 54.80691 | 52.02058 | 32283 ft | 498 kts | 111° |
| 2026-04-26 12:38 | 54.79505 | 52.07697 | 32593 ft | 498 kts | 111° |
| 2026-04-26 12:38 | 54.78319 | 52.13319 | 32925 ft | 497 kts | 111° |
| 2026-04-26 12:38 | 54.77131 | 52.18944 | 33195 ft | 498 kts | 111° |
| 2026-04-26 12:39 | 54.75937 | 52.24581 | 33476 ft | 498 kts | 111° |
| 2026-04-26 12:39 | 54.74742 | 52.30208 | 33771 ft | 498 kts | 111° |
| 2026-04-26 12:39 | 54.73544 | 52.35833 | 34049 ft | 498 kts | 111° |
| 2026-04-26 12:39 | 54.72342 | 52.41446 | 34294 ft | 497 kts | 111° |
| 2026-04-26 12:40 | 54.71139 | 52.47043 | 34549 ft | 497 kts | 111° |
| 2026-04-26 12:40 | 54.69934 | 52.52634 | 34799 ft | 496 kts | 111° |
| 2026-04-26 12:40 | 54.68727 | 52.58225 | 34906 ft | 495 kts | 111° |
| 2026-04-26 12:41 | 54.66317 | 52.69361 | 34940 ft | 493 kts | 111° |
| 2026-04-26 12:41 | 54.63942 | 52.80466 | 34943 ft | 493 kts | 107° |
| 2026-04-26 12:42 | 54.62189 | 52.91833 | 34951 ft | 493 kts | 105° |
| 2026-04-26 12:42 | 54.61310 | 52.97571 | 34632 ft | 496 kts | 105° |
| 2026-04-26 12:42 | 54.60429 | 53.03292 | 34335 ft | 491 kts | 105° |
| 2026-04-26 12:42 | 54.59547 | 53.08983 | 34109 ft | 490 kts | 105° |
| 2026-04-26 12:43 | 54.58663 | 53.14642 | 33578 ft | 491 kts | 105° |
| 2026-04-26 12:43 | 54.57760 | 53.20391 | 32160 ft | 503 kts | 105° |
| 2026-04-26 12:43 | 54.56834 | 53.26266 | 30922 ft | 511 kts | 105° |
| 2026-04-26 12:43 | 54.55908 | 53.32125 | 30417 ft | 502 kts | 105° |
| 2026-04-26 12:44 | 54.54995 | 53.37890 | 29815 ft | 496 kts | 105° |
| 2026-04-26 12:44 | 54.54091 | 53.43586 | 29117 ft | 490 kts | 105° |
| 2026-04-26 12:44 | 54.53201 | 53.49183 | 28093 ft | 481 kts | 105° |
| 2026-04-26 12:44 | 54.52322 | 53.54689 | 27000 ft | 473 kts | 105° |
| 2026-04-26 12:45 | 54.51455 | 53.60106 | 26005 ft | 465 kts | 105° |
| 2026-04-26 12:45 | 54.50607 | 53.65378 | 25570 ft | 449 kts | 105° |
| 2026-04-26 12:45 | 54.49781 | 53.70524 | 25072 ft | 444 kts | 105° |
| 2026-04-26 12:45 | 54.48961 | 53.75625 | 24614 ft | 440 kts | 105° |
| 2026-04-26 12:46 | 54.48145 | 53.80677 | 24150 ft | 437 kts | 105° |
| 2026-04-26 12:46 | 54.47341 | 53.85626 | 23671 ft | 434 kts | 105° |
| 2026-04-26 12:46 | 54.46525 | 53.90612 | 23147 ft | 432 kts | 105° |
| 2026-04-26 12:46 | 54.45713 | 53.95567 | 22667 ft | 427 kts | 105° |
| 2026-04-26 12:47 | 54.44913 | 54.00455 | 22198 ft | 423 kts | 105° |
| 2026-04-26 12:47 | 54.44384 | 54.03682 | 21870 ft | 421 kts | 105° |
| 2026-04-26 12:47 | 54.43589 | 54.08511 | 21398 ft | 418 kts | 106° |
| 2026-04-26 12:47 | 54.42532 | 54.14907 | 20783 ft | 414 kts | 106° |
| 2026-04-26 12:48 | 54.42013 | 54.18033 | 20593 ft | 408 kts | 106° |
| 2026-04-26 12:48 | 54.41238 | 54.22694 | 20334 ft | 403 kts | 106° |
| 2026-04-26 12:48 | 54.40470 | 54.27302 | 20081 ft | 401 kts | 106° |
| 2026-04-26 12:48 | 54.39701 | 54.31884 | 19839 ft | 399 kts | 106° |
| 2026-04-26 12:49 | 54.38935 | 54.36437 | 19585 ft | 397 kts | 106° |
| 2026-04-26 12:49 | 54.38347 | 54.41051 | 19338 ft | 395 kts | 96° |
| 2026-04-26 12:49 | 54.38211 | 54.45789 | 19096 ft | 401 kts | 86° |
| 2026-04-26 12:49 | 54.38522 | 54.50534 | 18848 ft | 399 kts | 76° |
| 2026-04-26 12:50 | 54.39119 | 54.55181 | 18607 ft | 398 kts | 75° |
| 2026-04-26 12:50 | 54.39703 | 54.59763 | 18372 ft | 397 kts | 75° |
| 2026-04-26 12:50 | 54.40277 | 54.64391 | 18121 ft | 395 kts | 76° |
| 2026-04-26 12:50 | 54.40839 | 54.69002 | 17842 ft | 394 kts | 76° |
| 2026-04-26 12:51 | 54.41394 | 54.73590 | 17584 ft | 392 kts | 76° |
| 2026-04-26 12:51 | 54.41945 | 54.78160 | 17313 ft | 390 kts | 76° |
| 2026-04-26 12:51 | 54.42494 | 54.82704 | 17042 ft | 388 kts | 76° |
| 2026-04-26 12:51 | 54.43039 | 54.87232 | 16778 ft | 386 kts | 76° |
| 2026-04-26 12:52 | 54.43582 | 54.91745 | 16512 ft | 385 kts | 76° |
| 2026-04-26 12:52 | 54.44121 | 54.96236 | 16246 ft | 383 kts | 76° |
| 2026-04-26 12:52 | 54.44654 | 55.00704 | 15986 ft | 381 kts | 76° |
| 2026-04-26 12:52 | 54.45186 | 55.05152 | 15728 ft | 379 kts | 76° |
| 2026-04-26 12:53 | 54.45716 | 55.09585 | 15469 ft | 378 kts | 76° |
| 2026-04-26 12:53 | 54.46241 | 55.13984 | 15185 ft | 373 kts | 76° |
| 2026-04-26 12:53 | 54.46759 | 55.18341 | 14740 ft | 371 kts | 77° |
| 2026-04-26 12:53 | 54.47273 | 55.22688 | 14281 ft | 370 kts | 77° |
| 2026-04-26 12:54 | 54.47783 | 55.27008 | 13817 ft | 369 kts | 77° |
| 2026-04-26 12:54 | 54.48283 | 55.31262 | 13339 ft | 367 kts | 77° |
| 2026-04-26 12:54 | 54.48781 | 55.35545 | 12882 ft | 364 kts | 77° |
| 2026-04-26 12:54 | 54.49272 | 55.39796 | 12399 ft | 361 kts | 77° |
| 2026-04-26 12:55 | 54.49751 | 55.44022 | 11942 ft | 359 kts | 79° |
| 2026-04-26 12:55 | 54.49783 | 55.48292 | 11467 ft | 358 kts | 99° |
| 2026-04-26 12:55 | 54.49050 | 55.52339 | 10989 ft | 353 kts | 119° |
| 2026-04-26 12:55 | 54.47669 | 55.55765 | 10289 ft | 346 kts | 139° |
| 2026-04-26 12:56 | 54.45790 | 55.58177 | 10089 ft | 328 kts | 156° |
| 2026-04-26 12:56 | 54.43767 | 55.59737 | 9965 ft | 313 kts | 162° |
| 2026-04-26 12:56 | 54.41802 | 55.61180 | 9827 ft | 302 kts | 162° |
| 2026-04-26 12:56 | 54.39890 | 55.62584 | 9545 ft | 295 kts | 162° |
| 2026-04-26 12:57 | 54.38014 | 55.63958 | 9395 ft | 293 kts | 162° |
| 2026-04-26 12:57 | 54.36146 | 55.65326 | 9070 ft | 290 kts | 162° |
| 2026-04-26 12:57 | 54.34296 | 55.66679 | 8686 ft | 288 kts | 162° |
| 2026-04-26 12:58 | 54.30638 | 55.69341 | 7954 ft | 283 kts | 161° |
| 2026-04-26 12:58 | 54.28884 | 55.70728 | 7809 ft | 275 kts | 151° |
| 2026-04-26 12:58 | 54.27565 | 55.73044 | 7642 ft | 273 kts | 122° |
| 2026-04-26 12:58 | 54.27030 | 55.76127 | 7338 ft | 273 kts | 92° |
| 2026-04-26 12:59 | 54.27312 | 55.79310 | 6987 ft | 270 kts | 66° |
| 2026-04-26 12:59 | 54.28308 | 55.81972 | 6634 ft | 264 kts | 41° |
| 2026-04-26 12:59 | 54.29755 | 55.83862 | 6252 ft | 262 kts | 31° |
| 2026-04-26 12:59 | 54.31249 | 55.85635 | 5870 ft | 261 kts | 31° |
| 2026-04-26 13:00 | 54.32733 | 55.87406 | 5507 ft | 259 kts | 32° |
| 2026-04-26 13:00 | 54.34184 | 55.89141 | 4931 ft | 257 kts | 32° |
| 2026-04-26 13:00 | 54.35666 | 55.90914 | 4349 ft | 255 kts | 32° |
| 2026-04-26 13:00 | 54.37098 | 55.92634 | 3820 ft | 252 kts | 32° |
| 2026-04-26 13:01 | 54.38505 | 55.94328 | 3549 ft | 246 kts | 32° |
| 2026-04-26 13:01 | 54.39905 | 55.96014 | 3238 ft | 245 kts | 32° |
| 2026-04-26 13:01 | 54.41311 | 55.97608 | 3017 ft | 238 kts | 21° |
| 2026-04-26 13:01 | 54.42870 | 55.98162 | 2976 ft | 223 kts | 352° |
| 2026-04-26 13:02 | 54.44292 | 55.97453 | 2757 ft | 207 kts | 327° |
| 2026-04-26 13:02 | 54.45526 | 55.96272 | 2501 ft | 200 kts | 326° |
| 2026-04-26 13:02 | 54.46725 | 55.95116 | 2264 ft | 193 kts | 326° |
| 2026-04-26 13:02 | 54.47859 | 55.94030 | 1988 ft | 180 kts | 325° |
| 2026-04-26 13:03 | 54.48912 | 55.93021 | 1746 ft | 166 kts | 325° |
| 2026-04-26 13:03 | 54.49859 | 55.92115 | 1534 ft | 149 kts | 324° |
| 2026-04-26 13:03 | 54.50734 | 55.91275 | 1326 ft | 140 kts | 324° |
| 2026-04-26 13:03 | 54.51574 | 55.90466 | 1120 ft | 137 kts | 327° |
| 2026-04-26 13:04 | 54.52403 | 55.89669 | 962 ft | 136 kts | 326° |
| 2026-04-26 13:04 | 54.53227 | 55.88876 | 783 ft | 135 kts | 325° |
| 2026-04-26 13:04 | 54.54044 | 55.88086 | 572 ft | 135 kts | 327° |
| 2026-04-26 13:04 | 54.54843 | 55.87322 | 454 ft | 121 kts | 329° |
| 2026-04-26 13:05 | 54.55435 | 55.86745 | 452 ft | 66 kts | 331° |
| 2026-04-26 13:05 | 54.55664 | 55.86528 | 449 ft | 29 kts | 331° |
| 2026-04-26 13:05 | 54.55788 | 55.86409 | 450 ft | 14 kts | 330° |
| 2026-04-26 13:05 | 54.55853 | 55.86438 | 451 ft | 9 kts | 53° |
| 2026-04-26 13:06 | 54.55886 | 55.86534 | 450 ft | 9 kts | 60° |
| 2026-04-26 13:06 | 54.55918 | 55.86634 | 450 ft | 9 kts | 61° |
| 2026-04-26 13:06 | 54.55947 | 55.86724 | 450 ft | 8 kts | 60° |
| 2026-04-26 13:06 | 54.55974 | 55.86806 | 450 ft | 7 kts | 61° |
| 2026-04-26 13:07 | 54.55998 | 55.86879 | 450 ft | 7 kts | 60° |
| 2026-04-26 13:07 | 54.56020 | 55.86943 | 450 ft | 6 kts | 60° |
| 2026-04-26 13:07 | 54.56039 | 55.87004 | 450 ft | 8 kts | 60° |
| 2026-04-26 13:07 | 54.56084 | 55.87139 | 450 ft | 16 kts | 60° |
| 2026-04-26 13:08 | 54.56135 | 55.87294 | 450 ft | 14 kts | 60° |
| 2026-04-26 13:08 | 54.56182 | 55.87438 | 450 ft | 13 kts | 60° |
| 2026-04-26 13:08 | 54.56239 | 55.87609 | 450 ft | 17 kts | 60° |
| 2026-04-26 13:08 | 54.56295 | 55.87781 | 451 ft | 15 kts | 60° |
| 2026-04-26 13:09 | 54.56345 | 55.87934 | 450 ft | 15 kts | 60° |
| 2026-04-26 13:09 | 54.56387 | 55.88059 | 450 ft | 9 kts | 60° |
| 2026-04-26 13:09 | 54.56418 | 55.88149 | 450 ft | 8 kts | 50° |
| 2026-04-26 13:09 | 54.56464 | 55.88197 | 450 ft | 7 kts | 28° |
| 2026-04-26 13:10 | 54.56494 | 55.88260 | 450 ft | 6 kts | 60° |
| 2026-04-26 13:10 | 54.56504 | 55.88293 | 450 ft | 1 kts | 61° |
| 2026-04-26 13:10 | 54.56505 | 55.88294 | 450 ft | 0 kts | 61° |